createdAt,value
2019-03-03T00:03:37.348Z,20.68
2019-03-03T00:09:32.352Z,20.37
2019-03-03T00:15:27.389Z,21.01
2019-03-03T00:21:22.356Z,21.25
2019-03-03T00:27:17.382Z,20.43
2019-03-03T00:33:12.395Z,19.29
2019-03-03T00:39:07.435Z,20.94
2019-03-03T00:45:02.391Z,19.25
2019-03-03T00:50:57.394Z,19.52
2019-03-03T00:56:52.429Z,18.19
2019-03-03T01:02:47.428Z,18.79
2019-03-03T01:08:42.431Z,19.89
2019-03-03T01:14:37.418Z,20.15
2019-03-03T01:20:32.417Z,19.3
2019-03-03T01:26:27.428Z,19.52
2019-03-03T01:32:22.475Z,19.27
2019-03-03T01:38:17.456Z,20.53
2019-03-03T01:44:12.441Z,18.72
2019-03-03T01:50:07.441Z,18.98
2019-03-03T01:56:02.483Z,18.95
2019-03-03T02:01:57.465Z,17.79
2019-03-03T02:07:52.489Z,17.89
2019-03-03T02:13:47.485Z,19.04
2019-03-03T02:19:42.460Z,17.76
2019-03-03T02:25:37.476Z,19.05
2019-03-03T02:31:32.502Z,18.72
2019-03-03T02:37:27.511Z,17.82
2019-03-03T02:43:22.492Z,18.26
2019-03-03T02:49:17.508Z,19.21
2019-03-03T02:55:12.510Z,17.94
2019-03-03T03:01:07.505Z,17.71
2019-03-03T03:07:02.528Z,17.86
2019-03-03T03:12:57.584Z,18.9
2019-03-03T03:18:52.517Z,18.56
2019-03-03T03:24:47.530Z,19.57
2019-03-03T03:30:42.562Z,16.67
2019-03-03T03:36:37.533Z,19.44
2019-03-03T03:42:32.543Z,19.3
2019-03-03T03:48:27.560Z,19.67
2019-03-03T03:54:22.605Z,18.34
2019-03-03T04:00:17.576Z,18.74
2019-03-03T04:06:12.601Z,20.93
2019-03-03T04:12:07.579Z,19.34
2019-03-03T04:18:02.567Z,17.91
2019-03-03T04:23:57.624Z,17.92
2019-03-03T04:29:52.591Z,17.63
2019-03-03T04:35:47.616Z,16.69
2019-03-03T04:41:42.578Z,16.63
2019-03-03T04:47:37.577Z,17.45
2019-03-03T04:53:32.590Z,16.4
2019-03-03T04:59:27.609Z,14.7
2019-03-03T05:05:22.616Z,15.41
2019-03-03T05:11:17.619Z,14.1
2019-03-03T05:17:12.673Z,15
2019-03-03T05:23:07.645Z,16.61
2019-03-03T05:29:02.705Z,15.55
2019-03-03T05:34:57.684Z,14.2
2019-03-03T05:40:52.642Z,14.26
2019-03-03T05:46:48.497Z,12.78
2019-03-03T05:52:42.658Z,15.29
2019-03-03T05:58:37.658Z,16.52
2019-03-03T06:04:32.661Z,15.13
2019-03-03T06:10:27.677Z,13.06
2019-03-03T06:16:22.670Z,12.79
2019-03-03T06:22:17.661Z,14.37
2019-03-03T06:28:12.697Z,12.76
2019-03-03T06:34:07.706Z,14.5
2019-03-03T06:40:02.690Z,14.13
2019-03-03T06:45:57.695Z,13.45
2019-03-03T06:51:52.722Z,13.69
2019-03-03T06:57:47.720Z,13.27
2019-03-03T07:03:42.707Z,13.81
2019-03-03T07:09:37.767Z,13.9
2019-03-03T07:15:32.764Z,14.21
2019-03-03T07:21:27.726Z,17.32
2019-03-03T07:27:22.728Z,14.99
2019-03-03T07:33:17.768Z,16.73
2019-03-03T07:39:12.743Z,18.11
2019-03-03T07:45:07.742Z,17.6
2019-03-03T07:51:02.768Z,17.87
2019-03-03T07:56:57.776Z,16.4
2019-03-03T08:02:52.795Z,18.7
2019-03-03T08:08:47.796Z,19.97
2019-03-03T08:14:42.765Z,20.55
2019-03-03T08:20:37.786Z,23.46
2019-03-03T08:26:32.765Z,23.9
2019-03-03T08:32:27.771Z,27.5
2019-03-03T08:38:22.803Z,28.7
2019-03-03T08:44:17.807Z,29.31
2019-03-03T08:50:12.799Z,31.63
2019-03-03T08:56:07.826Z,29.37
2019-03-03T09:02:02.846Z,27.68
2019-03-03T09:07:57.813Z,29.37
2019-03-03T09:13:52.825Z,29.4
2019-03-03T09:19:47.871Z,30.15
2019-03-03T09:25:42.850Z,30.29
2019-03-03T09:31:37.924Z,31.27
2019-03-03T09:37:32.840Z,30.66
2019-03-03T09:43:27.867Z,30.81
2019-03-03T09:49:22.861Z,29.98
2019-03-03T09:55:17.848Z,28.71
2019-03-03T10:01:12.880Z,29.27
2019-03-03T10:07:07.850Z,27.22
2019-03-03T10:13:02.883Z,27.84
2019-03-03T10:19:06.743Z,27.51
2019-03-03T10:24:52.905Z,25.93
2019-03-03T10:30:47.880Z,24.72
2019-03-03T10:36:42.887Z,24.31
2019-03-03T10:42:37.875Z,23.28
2019-03-03T10:48:32.925Z,22.5
2019-03-03T10:54:27.933Z,21.49
2019-03-03T11:00:22.927Z,21.73
2019-03-03T11:06:17.954Z,23.14
2019-03-03T11:12:12.943Z,24.27
2019-03-03T11:18:07.934Z,25.92
2019-03-03T11:24:03.044Z,26.79
2019-03-03T11:29:57.956Z,27.22
2019-03-03T11:35:52.945Z,25.17
2019-03-03T11:41:47.986Z,23.86
2019-03-03T11:47:42.982Z,22.72
2019-03-03T11:53:37.959Z,23
2019-03-03T11:59:32.959Z,23.5
2019-03-03T12:05:28.005Z,24.45
2019-03-03T12:11:23.014Z,22.64
2019-03-03T12:17:17.988Z,22.41
2019-03-03T12:23:12.989Z,26.61
2019-03-03T12:29:08.064Z,21.66
2019-03-03T12:35:03.048Z,20.56
2019-03-03T12:40:58.005Z,19.02
2019-03-03T12:46:53.027Z,20.69
2019-03-03T12:52:48.005Z,19.43
2019-03-03T12:58:43.031Z,16.65
2019-03-03T13:04:38.012Z,17.68
2019-03-03T13:10:33.089Z,17.78
2019-03-03T13:16:28.055Z,17.89
2019-03-03T13:22:23.048Z,16.28
2019-03-03T13:28:18.031Z,17.13
2019-03-03T13:34:13.049Z,15.87
2019-03-03T13:40:08.055Z,15.07
2019-03-03T13:46:03.101Z,12.23
2019-03-03T13:51:58.064Z,11.68
2019-03-03T13:57:53.103Z,10.95
2019-03-03T14:03:48.079Z,12.05
2019-03-03T14:09:43.074Z,10.7
2019-03-03T14:15:38.088Z,9.8
2019-03-03T14:21:33.118Z,9.13
2019-03-03T14:27:28.120Z,8.47
2019-03-03T14:33:23.160Z,8.43
2019-03-03T14:39:18.128Z,8.73
2019-03-03T14:45:13.120Z,9.11
2019-03-03T14:51:08.128Z,9.61
2019-03-03T14:57:03.143Z,9.04
2019-03-03T15:02:58.153Z,9.09
2019-03-03T15:08:53.166Z,9.01
2019-03-03T15:14:48.135Z,7.83
2019-03-03T15:20:43.160Z,8.27
2019-03-03T15:26:38.197Z,7.52
2019-03-03T15:32:33.183Z,7.43
2019-03-03T15:38:28.174Z,7.05
2019-03-03T15:44:23.226Z,7.2
2019-03-03T15:50:18.205Z,6.88
2019-03-03T15:56:13.202Z,7.03
2019-03-03T16:02:08.215Z,6.97
2019-03-03T16:08:03.245Z,7.7
2019-03-03T16:13:58.222Z,7.21
2019-03-03T16:19:53.213Z,7.16
2019-03-03T16:25:48.262Z,7.05
2019-03-03T16:31:43.219Z,7.13
2019-03-03T16:37:38.685Z,6.21
2019-03-03T16:43:33.239Z,6.69
2019-03-03T16:49:28.292Z,6.72
2019-03-03T16:55:23.248Z,7.77
2019-03-03T17:01:18.297Z,8.08
2019-03-03T17:07:13.275Z,8.01
2019-03-03T17:13:08.254Z,7.39
2019-03-03T17:19:03.310Z,7.49
2019-03-03T17:24:58.286Z,7.76
2019-03-03T17:30:53.308Z,7.42
2019-03-03T17:36:48.291Z,8.44
2019-03-03T17:42:43.307Z,8.22
2019-03-03T17:48:38.319Z,7.59
2019-03-03T17:54:33.312Z,7.53
2019-03-03T18:00:28.340Z,7.81
2019-03-03T18:06:23.308Z,8.11
2019-03-03T18:12:18.323Z,8.27
2019-03-03T18:18:13.318Z,9.83
2019-03-03T18:24:08.375Z,11.2
2019-03-03T18:30:03.359Z,11.62
2019-03-03T18:35:58.382Z,12.84
2019-03-03T18:41:53.379Z,13.13
2019-03-03T18:47:48.363Z,16.95
2019-03-03T18:53:43.372Z,15.39
2019-03-03T18:59:38.372Z,21.22
2019-03-03T19:05:33.384Z,11.43
2019-03-03T19:11:28.379Z,10.65
2019-03-03T19:17:23.448Z,14.5
2019-03-03T19:23:18.451Z,15.5
2019-03-03T19:29:13.399Z,16.69
2019-03-03T19:35:08.414Z,28.76
2019-03-03T19:41:03.410Z,22.55
2019-03-03T19:46:58.396Z,21.48
2019-03-03T19:52:53.411Z,14.32
2019-03-03T19:58:48.423Z,23.77
2019-03-03T20:04:43.438Z,18.73
2019-03-03T20:10:38.529Z,12.28
2019-03-03T20:16:33.432Z,13.31
2019-03-03T20:22:28.493Z,15.86
2019-03-03T20:28:23.453Z,19.43
2019-03-03T20:34:18.471Z,27.5
2019-03-03T20:40:13.464Z,15.24
2019-03-03T20:46:08.468Z,15.7
2019-03-03T20:52:03.492Z,14.54
2019-03-03T20:57:58.492Z,13.63
2019-03-03T21:03:53.495Z,13.09
2019-03-03T21:09:48.525Z,14.44
2019-03-03T21:15:43.470Z,12.37
2019-03-03T21:21:38.507Z,11.7
2019-03-03T21:27:33.490Z,12.93
2019-03-03T21:33:28.531Z,11.68
2019-03-03T21:39:23.514Z,9.95
2019-03-03T21:45:18.556Z,9.58
2019-03-03T21:51:13.560Z,11.2
2019-03-03T21:57:08.546Z,11.51
2019-03-03T22:03:03.553Z,10.19
2019-03-03T22:08:58.541Z,11.46
2019-03-03T22:14:53.552Z,10.31
2019-03-03T22:20:48.586Z,9.18
2019-03-03T22:26:43.615Z,10.01
2019-03-03T22:32:38.585Z,11
2019-03-03T22:38:33.562Z,13.11
2019-03-03T22:44:28.570Z,11.87
2019-03-03T22:50:23.609Z,11.66
2019-03-03T22:56:18.618Z,11.25
2019-03-03T23:02:13.585Z,10.54
2019-03-03T23:08:08.581Z,11.77
2019-03-03T23:14:03.592Z,11.55
2019-03-03T23:19:58.615Z,10.62
2019-03-03T23:25:53.606Z,9.86
2019-03-03T23:31:48.613Z,10.68
2019-03-03T23:37:43.603Z,11.9
2019-03-03T23:43:38.647Z,11.73
2019-03-03T23:49:33.636Z,11.23
2019-03-03T23:55:28.663Z,11.24
